Lynn, MA (01902)

9:36 PM EST on November 28, 2014 (GMT -0500)
Beachhurst | Change Station
CLOSE
Current Station
Personal Weather Station
Location: Swampscott, MA
Elevation: 45 ft
Nearby Weather Stations

Elev 45 ft 42.46 °N, 70.90 °W | Updated 9 seconds ago

Clear
Clear
27.1 °F
Feels Like 27 °F
N
2.0
Wind Variable Wind from WNW
Gusts 7.0 mph

Today
High -- | Low -- °F
--% Chance of Precip.
Yesterday
High -- | Low -- °F
Precip. -- in
6:50 AM 4:12 PM
Waxing Crescent, 46% visible
Pressure 30.17 in
Visibility 10.0 miles
Clouds Clear
Windchill 27 °F
Dew Point 20 °F
Humidity 73%
Rainfall 0.00 in
Snow Depth Not available.
UV 0.0 out of 12
Pollen .10 out of 12
Air Quality Not available.
Flu Activity Not available.
METAR KBVY 290153Z AUTO 27003KT 10SM CLR M04/M10 A3017 RMK AO2 SLP214 T10441100

More Conditions Fewer Conditions

Pressure 30.17 in
Visibility 10.0 miles
Clouds Clear
Windchill 27 °F
Dew Point 20 °F
Humidity 73%
Rainfall 0.00 in
Snow Depth Not available.
UV 0.0 out of 12
Pollen .10 out of 12
Air Quality Not available.
Flu Activity Not available.
METAR KBVY 290153Z AUTO 27003KT 10SM CLR M04/M10 A3017 RMK AO2 SLP214 T10441100

More Conditions Fewer Conditions

10-Day Weather Forecast

Almanac

Astronomy

Nov. 28, 2014 Rise Set
Actual Time
Civil Twilight
Nautical Twilight
Astronomical Twilight
Moon
Length of Visible Light
Length of Day
Tomorrow will be .
, % of the Moon is Illuminated

Today's Extremes

State Highs State Lows

Community

WunderPhotos

Upload Photos

1,774,375 photos uploaded!

WunderBlogs® & News

Nearby

Air Quality

  Air Quality AQ Index Pollutant
Not available.

Snow Depth

Station Depth Elevation

Earthquake Activity

City Distance Mag. Time & Date
Minimum magnitude displayed is 2.5.

Coastal Water Temperatures

Place Temperature

Nearby Weather Stations